sensor_id;sensor_type;location;lat;lon;timestamp;temperature;humidity
21612;DHT22;47005;52.292;13.452;2023-04-15T00:02:16;10.20;99.90
21612;DHT22;47005;52.292;13.452;2023-04-15T00:04:46;10.30;99.90
21612;DHT22;47005;52.292;13.452;2023-04-15T00:07:12;10.20;99.90
21612;DHT22;47005;52.292;13.452;2023-04-15T00:09:38;10.20;99.90
21612;DHT22;47005;52.292;13.452;2023-04-15T00:12:04;10.20;99.90
21612;DHT22;47005;52.292;13.452;2023-04-15T00:14:30;10.30;99.90
21612;DHT22;47005;52.292;13.452;2023-04-15T00:16:55;10.20;99.90
21612;DHT22;47005;52.292;13.452;2023-04-15T00:19:22;10.30;99.90
21612;DHT22;47005;52.292;13.452;2023-04-15T00:21:48;10.30;99.90
21612;DHT22;47005;52.292;13.452;2023-04-15T00:24:14;10.20;99.90
21612;DHT22;47005;52.292;13.452;2023-04-15T00:26:43;10.20;99.90
21612;DHT22;47005;52.292;13.452;2023-04-15T00:29:09;10.10;99.90
21612;DHT22;47005;52.292;13.452;2023-04-15T00:31:35;10.20;99.90
21612;DHT22;47005;52.292;13.452;2023-04-15T00:34:00;10.20;99.90
21612;DHT22;47005;52.292;13.452;2023-04-15T00:36:26;10.20;99.90
21612;DHT22;47005;52.292;13.452;2023-04-15T00:38:52;10.30;99.90
21612;DHT22;47005;52.292;13.452;2023-04-15T00:41:18;10.20;99.90
21612;DHT22;47005;52.292;13.452;2023-04-15T00:43:45;10.20;99.90
21612;DHT22;47005;52.292;13.452;2023-04-15T00:46:13;10.20;99.90
21612;DHT22;47005;52.292;13.452;2023-04-15T00:48:40;10.30;99.90
21612;DHT22;47005;52.292;13.452;2023-04-15T00:51:07;10.20;99.90
21612;DHT22;47005;52.292;13.452;2023-04-15T00:53:33;10.30;99.90
21612;DHT22;47005;52.292;13.452;2023-04-15T00:55:59;10.30;99.90
21612;DHT22;47005;52.292;13.452;2023-04-15T00:58:25;10.30;99.90
21612;DHT22;47005;52.292;13.452;2023-04-15T01:00:53;10.30;99.90
21612;DHT22;47005;52.292;13.452;2023-04-15T01:03:19;10.30;99.90
21612;DHT22;47005;52.292;13.452;2023-04-15T01:05:45;10.30;99.90
21612;DHT22;47005;52.292;13.452;2023-04-15T01:08:11;10.30;99.90
21612;DHT22;47005;52.292;13.452;2023-04-15T01:10:38;10.30;99.90
21612;DHT22;47005;52.292;13.452;2023-04-15T01:13:04;10.30;99.90
21612;DHT22;47005;52.292;13.452;2023-04-15T01:15:30;10.30;99.90
21612;DHT22;47005;52.292;13.452;2023-04-15T01:17:59;10.20;99.90
21612;DHT22;47005;52.292;13.452;2023-04-15T01:20:27;10.20;99.90
21612;DHT22;47005;52.292;13.452;2023-04-15T01:22:54;10.30;99.90
21612;DHT22;47005;52.292;13.452;2023-04-15T01:25:30;10.30;99.90
21612;DHT22;47005;52.292;13.452;2023-04-15T01:27:57;10.30;99.90
21612;DHT22;47005;52.292;13.452;2023-04-15T01:30:23;10.30;99.90
21612;DHT22;47005;52.292;13.452;2023-04-15T01:32:50;10.30;99.90
21612;DHT22;47005;52.292;13.452;2023-04-15T01:35:16;10.20;99.90
21612;DHT22;47005;52.292;13.452;2023-04-15T01:37:41;10.20;99.90
21612;DHT22;47005;52.292;13.452;2023-04-15T01:40:08;10.20;99.90
21612;DHT22;47005;52.292;13.452;2023-04-15T01:42:35;10.30;99.90
21612;DHT22;47005;52.292;13.452;2023-04-15T01:45:01;10.30;99.90
21612;DHT22;47005;52.292;13.452;2023-04-15T01:47:27;10.20;99.90
21612;DHT22;47005;52.292;13.452;2023-04-15T01:49:55;10.30;99.90
21612;DHT22;47005;52.292;13.452;2023-04-15T01:52:21;10.30;99.90
21612;DHT22;47005;52.292;13.452;2023-04-15T01:54:47;10.30;99.90
21612;DHT22;47005;52.292;13.452;2023-04-15T01:57:12;10.20;99.90
21612;DHT22;47005;52.292;13.452;2023-04-15T01:59:38;10.20;99.90
21612;DHT22;47005;52.292;13.452;2023-04-15T02:02:04;10.20;99.90
21612;DHT22;47005;52.292;13.452;2023-04-15T02:04:29;10.20;99.90
21612;DHT22;47005;52.292;13.452;2023-04-15T02:06:56;10.30;99.90
21612;DHT22;47005;52.292;13.452;2023-04-15T02:09:21;10.20;99.90
21612;DHT22;47005;52.292;13.452;2023-04-15T02:11:47;10.20;99.90
21612;DHT22;47005;52.292;13.452;2023-04-15T02:14:13;10.20;99.90
21612;DHT22;47005;52.292;13.452;2023-04-15T02:16:38;10.30;99.90
21612;DHT22;47005;52.292;13.452;2023-04-15T02:19:07;10.20;99.90
21612;DHT22;47005;52.292;13.452;2023-04-15T02:21:33;10.20;99.90
21612;DHT22;47005;52.292;13.452;2023-04-15T02:23:59;10.20;99.90
21612;DHT22;47005;52.292;13.452;2023-04-15T02:26:26;10.30;99.90
21612;DHT22;47005;52.292;13.452;2023-04-15T02:28:52;10.20;99.90
21612;DHT22;47005;52.292;13.452;2023-04-15T02:31:18;10.20;99.90
21612;DHT22;47005;52.292;13.452;2023-04-15T02:33:44;10.20;99.90
21612;DHT22;47005;52.292;13.452;2023-04-15T02:36:09;10.20;99.90
21612;DHT22;47005;52.292;13.452;2023-04-15T02:38:36;10.20;99.90
21612;DHT22;47005;52.292;13.452;2023-04-15T02:41:04;10.20;99.90
21612;DHT22;47005;52.292;13.452;2023-04-15T02:43:30;10.20;99.90
21612;DHT22;47005;52.292;13.452;2023-04-15T02:45:56;10.20;99.90
21612;DHT22;47005;52.292;13.452;2023-04-15T02:48:21;10.20;99.90
21612;DHT22;47005;52.292;13.452;2023-04-15T02:50:47;10.20;99.90
21612;DHT22;47005;52.292;13.452;2023-04-15T02:53:13;10.20;99.90
21612;DHT22;47005;52.292;13.452;2023-04-15T02:55:39;10.20;99.90
21612;DHT22;47005;52.292;13.452;2023-04-15T02:58:05;10.20;99.90
21612;DHT22;47005;52.292;13.452;2023-04-15T03:00:31;10.20;99.90
21612;DHT22;47005;52.292;13.452;2023-04-15T03:03:00;10.20;99.90
21612;DHT22;47005;52.292;13.452;2023-04-15T03:05:26;10.20;99.90
21612;DHT22;47005;52.292;13.452;2023-04-15T03:07:52;10.20;99.90
21612;DHT22;47005;52.292;13.452;2023-04-15T03:10:18;10.20;99.90
21612;DHT22;47005;52.292;13.452;2023-04-15T03:12:44;10.20;99.90
21612;DHT22;47005;52.292;13.452;2023-04-15T03:15:10;10.20;99.90
21612;DHT22;47005;52.292;13.452;2023-04-15T03:17:36;10.20;99.90
21612;DHT22;47005;52.292;13.452;2023-04-15T03:20:02;10.20;99.90
21612;DHT22;47005;52.292;13.452;2023-04-15T03:22:30;10.20;99.90
21612;DHT22;47005;52.292;13.452;2023-04-15T03:24:56;10.20;99.90
21612;DHT22;47005;52.292;13.452;2023-04-15T03:27:22;10.20;99.90
21612;DHT22;47005;52.292;13.452;2023-04-15T03:29:47;10.20;99.90
21612;DHT22;47005;52.292;13.452;2023-04-15T03:32:13;10.20;99.90
21612;DHT22;47005;52.292;13.452;2023-04-15T03:34:40;10.20;99.90
21612;DHT22;47005;52.292;13.452;2023-04-15T03:37:05;10.20;99.90
21612;DHT22;47005;52.292;13.452;2023-04-15T03:39:31;10.20;99.90
21612;DHT22;47005;52.292;13.452;2023-04-15T03:41:57;10.20;99.90
21612;DHT22;47005;52.292;13.452;2023-04-15T03:44:25;10.20;99.90
21612;DHT22;47005;52.292;13.452;2023-04-15T03:46:51;10.20;99.90
21612;DHT22;47005;52.292;13.452;2023-04-15T03:49:16;10.30;99.90
21612;DHT22;47005;52.292;13.452;2023-04-15T03:51:43;10.20;99.90
21612;DHT22;47005;52.292;13.452;2023-04-15T03:54:09;10.30;99.90
21612;DHT22;47005;52.292;13.452;2023-04-15T03:56:35;10.20;99.90
21612;DHT22;47005;52.292;13.452;2023-04-15T03:59:01;10.20;99.90
21612;DHT22;47005;52.292;13.452;2023-04-15T04:01:27;10.30;99.90
21612;DHT22;47005;52.292;13.452;2023-04-15T04:03:52;10.30;99.90
21612;DHT22;47005;52.292;13.452;2023-04-15T04:06:18;10.30;99.90
21612;DHT22;47005;52.292;13.452;2023-04-15T04:08:44;10.30;99.90
21612;DHT22;47005;52.292;13.452;2023-04-15T04:11:10;10.30;99.90
21612;DHT22;47005;52.292;13.452;2023-04-15T04:13:36;10.30;99.90
21612;DHT22;47005;52.292;13.452;2023-04-15T04:16:01;10.30;99.90
21612;DHT22;47005;52.292;13.452;2023-04-15T04:18:30;10.30;99.90
21612;DHT22;47005;52.292;13.452;2023-04-15T04:20:55;10.30;99.90
21612;DHT22;47005;52.292;13.452;2023-04-15T04:23:21;10.30;99.90
21612;DHT22;47005;52.292;13.452;2023-04-15T04:25:47;10.30;99.90
21612;DHT22;47005;52.292;13.452;2023-04-15T04:28:12;10.30;99.90
21612;DHT22;47005;52.292;13.452;2023-04-15T04:30:39;10.30;99.90
21612;DHT22;47005;52.292;13.452;2023-04-15T04:33:05;10.30;99.90
21612;DHT22;47005;52.292;13.452;2023-04-15T04:35:31;10.30;99.90
21612;DHT22;47005;52.292;13.452;2023-04-15T04:37:59;10.30;99.90
21612;DHT22;47005;52.292;13.452;2023-04-15T04:40:25;10.30;99.90
21612;DHT22;47005;52.292;13.452;2023-04-15T04:42:52;10.40;99.90
21612;DHT22;47005;52.292;13.452;2023-04-15T04:45:18;10.30;99.90
21612;DHT22;47005;52.292;13.452;2023-04-15T04:47:43;10.30;99.90
21612;DHT22;47005;52.292;13.452;2023-04-15T04:50:09;10.30;99.90
21612;DHT22;47005;52.292;13.452;2023-04-15T04:52:35;10.40;99.90
21612;DHT22;47005;52.292;13.452;2023-04-15T04:55:01;10.30;99.90
21612;DHT22;47005;52.292;13.452;2023-04-15T04:57:26;10.30;99.90
21612;DHT22;47005;52.292;13.452;2023-04-15T04:59:52;10.40;99.90
21612;DHT22;47005;52.292;13.452;2023-04-15T05:02:18;10.40;99.90
21612;DHT22;47005;52.292;13.452;2023-04-15T05:04:43;10.30;99.90
21612;DHT22;47005;52.292;13.452;2023-04-15T05:07:09;10.40;99.90
21612;DHT22;47005;52.292;13.452;2023-04-15T05:09:35;10.40;99.90
21612;DHT22;47005;52.292;13.452;2023-04-15T05:12:02;10.40;99.90
21612;DHT22;47005;52.292;13.452;2023-04-15T05:14:28;10.40;99.90
21612;DHT22;47005;52.292;13.452;2023-04-15T05:16:54;10.40;99.90
21612;DHT22;47005;52.292;13.452;2023-04-15T05:19:19;10.40;99.90
21612;DHT22;47005;52.292;13.452;2023-04-15T05:21:45;10.40;99.90
21612;DHT22;47005;52.292;13.452;2023-04-15T05:24:11;10.40;99.90
21612;DHT22;47005;52.292;13.452;2023-04-15T05:26:36;10.50;99.90
21612;DHT22;47005;52.292;13.452;2023-04-15T05:29:02;10.50;99.90
21612;DHT22;47005;52.292;13.452;2023-04-15T05:31:27;10.50;99.90
21612;DHT22;47005;52.292;13.452;2023-04-15T05:33:53;10.50;99.90
21612;DHT22;47005;52.292;13.452;2023-04-15T05:36:19;10.50;99.90
21612;DHT22;47005;52.292;13.452;2023-04-15T05:38:45;10.50;99.90
21612;DHT22;47005;52.292;13.452;2023-04-15T05:41:11;10.50;99.90
21612;DHT22;47005;52.292;13.452;2023-04-15T05:43:36;10.60;99.90
21612;DHT22;47005;52.292;13.452;2023-04-15T05:46:02;10.50;99.90
21612;DHT22;47005;52.292;13.452;2023-04-15T05:48:28;10.50;99.90
21612;DHT22;47005;52.292;13.452;2023-04-15T05:50:53;10.60;99.90
21612;DHT22;47005;52.292;13.452;2023-04-15T05:53:19;10.60;99.90
21612;DHT22;47005;52.292;13.452;2023-04-15T05:55:45;10.60;99.90
21612;DHT22;47005;52.292;13.452;2023-04-15T05:58:11;10.60;99.90
21612;DHT22;47005;52.292;13.452;2023-04-15T06:00:36;10.60;99.90
21612;DHT22;47005;52.292;13.452;2023-04-15T06:03:03;10.60;99.90
21612;DHT22;47005;52.292;13.452;2023-04-15T06:05:29;10.60;99.90
21612;DHT22;47005;52.292;13.452;2023-04-15T06:07:54;10.60;99.90
21612;DHT22;47005;52.292;13.452;2023-04-15T06:10:20;10.70;99.90
21612;DHT22;47005;52.292;13.452;2023-04-15T06:12:46;10.70;99.90
21612;DHT22;47005;52.292;13.452;2023-04-15T06:15:12;10.70;99.90
21612;DHT22;47005;52.292;13.452;2023-04-15T06:17:38;10.70;99.90
21612;DHT22;47005;52.292;13.452;2023-04-15T06:20:04;10.70;99.90
21612;DHT22;47005;52.292;13.452;2023-04-15T06:22:30;10.80;99.90
21612;DHT22;47005;52.292;13.452;2023-04-15T06:24:55;10.80;99.90
21612;DHT22;47005;52.292;13.452;2023-04-15T06:27:21;10.80;99.90
21612;DHT22;47005;52.292;13.452;2023-04-15T06:29:47;10.80;99.90
21612;DHT22;47005;52.292;13.452;2023-04-15T06:32:13;10.80;99.90
21612;DHT22;47005;52.292;13.452;2023-04-15T06:34:39;10.80;99.90
21612;DHT22;47005;52.292;13.452;2023-04-15T06:37:05;10.90;99.90
21612;DHT22;47005;52.292;13.452;2023-04-15T06:39:31;10.90;99.90
21612;DHT22;47005;52.292;13.452;2023-04-15T06:41:56;10.90;99.90
21612;DHT22;47005;52.292;13.452;2023-04-15T06:44:22;10.90;99.90
21612;DHT22;47005;52.292;13.452;2023-04-15T06:46:48;10.90;99.90
21612;DHT22;47005;52.292;13.452;2023-04-15T06:49:13;11.00;99.90
21612;DHT22;47005;52.292;13.452;2023-04-15T06:51:40;11.00;99.90
21612;DHT22;47005;52.292;13.452;2023-04-15T06:54:07;11.00;99.90
21612;DHT22;47005;52.292;13.452;2023-04-15T06:56:33;11.00;99.90
21612;DHT22;47005;52.292;13.452;2023-04-15T06:58:58;11.00;99.90
21612;DHT22;47005;52.292;13.452;2023-04-15T07:01:24;11.00;99.90
21612;DHT22;47005;52.292;13.452;2023-04-15T07:03:50;11.00;99.90
21612;DHT22;47005;52.292;13.452;2023-04-15T07:06:16;11.00;99.90
21612;DHT22;47005;52.292;13.452;2023-04-15T07:08:41;11.00;99.90
21612;DHT22;47005;52.292;13.452;2023-04-15T07:11:07;11.00;99.90
21612;DHT22;47005;52.292;13.452;2023-04-15T07:13:33;11.00;99.90
21612;DHT22;47005;52.292;13.452;2023-04-15T07:15:59;11.00;99.90
21612;DHT22;47005;52.292;13.452;2023-04-15T07:18:24;11.00;99.90
21612;DHT22;47005;52.292;13.452;2023-04-15T07:20:50;11.00;99.90
21612;DHT22;47005;52.292;13.452;2023-04-15T07:23:16;11.00;99.90
21612;DHT22;47005;52.292;13.452;2023-04-15T07:25:42;11.00;99.90
21612;DHT22;47005;52.292;13.452;2023-04-15T07:28:08;11.00;99.90
21612;DHT22;47005;52.292;13.452;2023-04-15T07:30:34;11.00;99.90
21612;DHT22;47005;52.292;13.452;2023-04-15T07:33:00;11.00;99.90
21612;DHT22;47005;52.292;13.452;2023-04-15T07:35:26;11.00;99.90
21612;DHT22;47005;52.292;13.452;2023-04-15T07:37:53;11.00;99.90
21612;DHT22;47005;52.292;13.452;2023-04-15T07:40:19;11.00;99.90
21612;DHT22;47005;52.292;13.452;2023-04-15T07:42:47;11.00;99.90
21612;DHT22;47005;52.292;13.452;2023-04-15T07:45:16;11.00;99.90
21612;DHT22;47005;52.292;13.452;2023-04-15T07:47:42;11.00;99.90
21612;DHT22;47005;52.292;13.452;2023-04-15T07:50:09;11.00;99.90
21612;DHT22;47005;52.292;13.452;2023-04-15T07:52:35;11.00;99.90
21612;DHT22;47005;52.292;13.452;2023-04-15T07:55:05;11.00;99.90
21612;DHT22;47005;52.292;13.452;2023-04-15T07:57:35;11.10;99.90
21612;DHT22;47005;52.292;13.452;2023-04-15T08:00:02;11.10;99.90
21612;DHT22;47005;52.292;13.452;2023-04-15T08:02:32;11.10;99.90
21612;DHT22;47005;52.292;13.452;2023-04-15T08:04:58;11.10;99.90
21612;DHT22;47005;52.292;13.452;2023-04-15T08:07:24;11.10;99.90
21612;DHT22;47005;52.292;13.452;2023-04-15T08:09:50;11.10;99.90
21612;DHT22;47005;52.292;13.452;2023-04-15T08:12:16;11.10;99.90
21612;DHT22;47005;52.292;13.452;2023-04-15T08:14:42;11.10;99.90
21612;DHT22;47005;52.292;13.452;2023-04-15T08:17:07;11.10;99.90
21612;DHT22;47005;52.292;13.452;2023-04-15T08:19:36;11.10;99.90
21612;DHT22;47005;52.292;13.452;2023-04-15T08:22:02;11.10;99.90
21612;DHT22;47005;52.292;13.452;2023-04-15T08:24:29;11.00;99.90
21612;DHT22;47005;52.292;13.452;2023-04-15T08:26:55;11.00;99.90
21612;DHT22;47005;52.292;13.452;2023-04-15T08:29:22;11.00;99.90
21612;DHT22;47005;52.292;13.452;2023-04-15T08:31:47;11.00;99.90
21612;DHT22;47005;52.292;13.452;2023-04-15T08:34:14;11.00;99.90
21612;DHT22;47005;52.292;13.452;2023-04-15T08:36:39;11.00;99.90
21612;DHT22;47005;52.292;13.452;2023-04-15T08:39:05;11.00;99.90
21612;DHT22;47005;52.292;13.452;2023-04-15T08:44:22;11.00;99.90
21612;DHT22;47005;52.292;13.452;2023-04-15T08:46:51;11.00;99.90
21612;DHT22;47005;52.292;13.452;2023-04-15T08:49:21;11.10;99.90
21612;DHT22;47005;52.292;13.452;2023-04-15T08:51:50;11.10;99.90
21612;DHT22;47005;52.292;13.452;2023-04-15T08:54:16;11.10;99.90
21612;DHT22;47005;52.292;13.452;2023-04-15T08:56:43;11.10;99.90
21612;DHT22;47005;52.292;13.452;2023-04-15T08:59:08;11.10;99.90
21612;DHT22;47005;52.292;13.452;2023-04-15T09:01:36;11.20;99.90
21612;DHT22;47005;52.292;13.452;2023-04-15T09:04:02;11.20;99.90
21612;DHT22;47005;52.292;13.452;2023-04-15T09:06:31;11.20;99.90
21612;DHT22;47005;52.292;13.452;2023-04-15T09:08:56;11.30;99.90
21612;DHT22;47005;52.292;13.452;2023-04-15T09:11:22;11.30;99.90
21612;DHT22;47005;52.292;13.452;2023-04-15T09:13:48;11.30;99.90
21612;DHT22;47005;52.292;13.452;2023-04-15T09:16:14;11.30;99.90
21612;DHT22;47005;52.292;13.452;2023-04-15T09:18:40;11.30;99.90
21612;DHT22;47005;52.292;13.452;2023-04-15T09:21:07;11.40;99.90
21612;DHT22;47005;52.292;13.452;2023-04-15T09:23:34;11.40;99.90
21612;DHT22;47005;52.292;13.452;2023-04-15T09:26:01;11.40;99.90
21612;DHT22;47005;52.292;13.452;2023-04-15T09:28:27;11.40;99.90
21612;DHT22;47005;52.292;13.452;2023-04-15T09:31:00;11.40;99.90
21612;DHT22;47005;52.292;13.452;2023-04-15T09:33:28;11.40;99.90
21612;DHT22;47005;52.292;13.452;2023-04-15T09:35:59;11.40;99.90
21612;DHT22;47005;52.292;13.452;2023-04-15T09:38:24;11.40;99.90
21612;DHT22;47005;52.292;13.452;2023-04-15T09:40:50;11.40;99.90
21612;DHT22;47005;52.292;13.452;2023-04-15T09:43:16;11.40;99.90
21612;DHT22;47005;52.292;13.452;2023-04-15T09:45:50;11.40;99.90
21612;DHT22;47005;52.292;13.452;2023-04-15T09:48:25;11.40;99.90
21612;DHT22;47005;52.292;13.452;2023-04-15T09:50:52;11.40;99.90
21612;DHT22;47005;52.292;13.452;2023-04-15T09:53:22;11.40;99.90
21612;DHT22;47005;52.292;13.452;2023-04-15T09:55:52;11.40;99.90
21612;DHT22;47005;52.292;13.452;2023-04-15T09:58:39;11.40;99.90
21612;DHT22;47005;52.292;13.452;2023-04-15T10:01:06;11.40;99.90
21612;DHT22;47005;52.292;13.452;2023-04-15T10:03:34;11.40;99.90
21612;DHT22;47005;52.292;13.452;2023-04-15T10:06:01;11.40;99.90
21612;DHT22;47005;52.292;13.452;2023-04-15T10:08:30;11.40;99.90
21612;DHT22;47005;52.292;13.452;2023-04-15T10:10:57;11.40;99.90
21612;DHT22;47005;52.292;13.452;2023-04-15T10:13:24;11.40;99.90
21612;DHT22;47005;52.292;13.452;2023-04-15T10:18:19;11.40;99.90
21612;DHT22;47005;52.292;13.452;2023-04-15T10:20:49;11.40;99.90
21612;DHT22;47005;52.292;13.452;2023-04-15T10:23:15;11.40;99.90
21612;DHT22;47005;52.292;13.452;2023-04-15T10:25:44;11.40;99.90
21612;DHT22;47005;52.292;13.452;2023-04-15T10:28:10;11.40;99.90
21612;DHT22;47005;52.292;13.452;2023-04-15T10:30:37;11.40;99.90
21612;DHT22;47005;52.292;13.452;2023-04-15T10:33:04;11.40;99.90
21612;DHT22;47005;52.292;13.452;2023-04-15T10:35:31;11.40;99.90
21612;DHT22;47005;52.292;13.452;2023-04-15T10:37:58;11.40;99.90
21612;DHT22;47005;52.292;13.452;2023-04-15T10:40:28;11.40;99.90
21612;DHT22;47005;52.292;13.452;2023-04-15T10:42:58;11.40;99.90
21612;DHT22;47005;52.292;13.452;2023-04-15T10:45:44;11.40;99.90
21612;DHT22;47005;52.292;13.452;2023-04-15T10:48:15;11.40;99.90
21612;DHT22;47005;52.292;13.452;2023-04-15T10:50:55;11.40;99.90
21612;DHT22;47005;52.292;13.452;2023-04-15T10:53:27;11.40;99.90
21612;DHT22;47005;52.292;13.452;2023-04-15T10:55:53;11.50;99.90
21612;DHT22;47005;52.292;13.452;2023-04-15T10:58:23;11.50;99.90
21612;DHT22;47005;52.292;13.452;2023-04-15T11:00:51;11.40;99.90
21612;DHT22;47005;52.292;13.452;2023-04-15T11:03:36;11.50;99.90
21612;DHT22;47005;52.292;13.452;2023-04-15T11:06:03;11.50;99.90
21612;DHT22;47005;52.292;13.452;2023-04-15T11:08:54;11.50;99.90
21612;DHT22;47005;52.292;13.452;2023-04-15T11:11:21;11.50;99.90
21612;DHT22;47005;52.292;13.452;2023-04-15T11:13:48;11.50;99.90
21612;DHT22;47005;52.292;13.452;2023-04-15T11:16:14;11.50;99.90
21612;DHT22;47005;52.292;13.452;2023-04-15T11:18:39;11.40;99.90
21612;DHT22;47005;52.292;13.452;2023-04-15T11:21:06;11.50;99.90
21612;DHT22;47005;52.292;13.452;2023-04-15T11:23:40;11.40;99.90
21612;DHT22;47005;52.292;13.452;2023-04-15T11:26:13;11.50;99.90
21612;DHT22;47005;52.292;13.452;2023-04-15T11:28:43;11.50;99.90
21612;DHT22;47005;52.292;13.452;2023-04-15T11:31:16;11.50;99.90
21612;DHT22;47005;52.292;13.452;2023-04-15T11:33:52;11.50;99.90
21612;DHT22;47005;52.292;13.452;2023-04-15T11:36:18;11.50;99.90
21612;DHT22;47005;52.292;13.452;2023-04-15T11:38:46;11.50;99.90
21612;DHT22;47005;52.292;13.452;2023-04-15T11:41:12;11.50;99.90
21612;DHT22;47005;52.292;13.452;2023-04-15T11:43:38;11.50;99.90
21612;DHT22;47005;52.292;13.452;2023-04-15T11:46:03;11.50;99.90
21612;DHT22;47005;52.292;13.452;2023-04-15T11:48:32;11.50;99.90
21612;DHT22;47005;52.292;13.452;2023-04-15T11:51:05;11.50;99.90
21612;DHT22;47005;52.292;13.452;2023-04-15T11:56:04;11.50;99.90
21612;DHT22;47005;52.292;13.452;2023-04-15T11:58:30;11.50;99.90
21612;DHT22;47005;52.292;13.452;2023-04-15T12:00:59;11.50;99.90
21612;DHT22;47005;52.292;13.452;2023-04-15T12:03:30;11.50;99.90
21612;DHT22;47005;52.292;13.452;2023-04-15T12:06:19;11.50;99.90
21612;DHT22;47005;52.292;13.452;2023-04-15T12:09:06;11.50;99.90
21612;DHT22;47005;52.292;13.452;2023-04-15T12:14:05;11.60;99.90
21612;DHT22;47005;52.292;13.452;2023-04-15T12:16:36;11.60;99.90
21612;DHT22;47005;52.292;13.452;2023-04-15T12:19:09;11.60;99.90
21612;DHT22;47005;52.292;13.452;2023-04-15T12:21:38;11.60;99.90
21612;DHT22;47005;52.292;13.452;2023-04-15T12:24:07;11.60;99.90
21612;DHT22;47005;52.292;13.452;2023-04-15T12:26:36;11.60;99.90
21612;DHT22;47005;52.292;13.452;2023-04-15T12:29:09;11.70;99.90
21612;DHT22;47005;52.292;13.452;2023-04-15T12:31:35;11.60;99.90
21612;DHT22;47005;52.292;13.452;2023-04-15T12:34:06;11.70;99.90
21612;DHT22;47005;52.292;13.452;2023-04-15T12:36:33;11.70;99.90
21612;DHT22;47005;52.292;13.452;2023-04-15T12:39:04;11.70;99.90
21612;DHT22;47005;52.292;13.452;2023-04-15T12:41:31;11.70;99.90
21612;DHT22;47005;52.292;13.452;2023-04-15T12:43:57;11.70;99.90
21612;DHT22;47005;52.292;13.452;2023-04-15T12:46:24;11.80;99.90
21612;DHT22;47005;52.292;13.452;2023-04-15T12:48:50;11.80;99.90
21612;DHT22;47005;52.292;13.452;2023-04-15T12:51:19;11.80;99.90
21612;DHT22;47005;52.292;13.452;2023-04-15T12:53:47;11.80;99.90
21612;DHT22;47005;52.292;13.452;2023-04-15T12:56:15;11.80;99.90
21612;DHT22;47005;52.292;13.452;2023-04-15T12:58:41;11.80;99.90
21612;DHT22;47005;52.292;13.452;2023-04-15T13:01:07;11.80;99.90
21612;DHT22;47005;52.292;13.452;2023-04-15T13:03:33;11.80;99.90
21612;DHT22;47005;52.292;13.452;2023-04-15T13:05:59;11.80;99.90
21612;DHT22;47005;52.292;13.452;2023-04-15T13:08:26;11.80;99.90
21612;DHT22;47005;52.292;13.452;2023-04-15T13:10:52;11.80;99.90
21612;DHT22;47005;52.292;13.452;2023-04-15T13:13:17;11.80;99.90
21612;DHT22;47005;52.292;13.452;2023-04-15T13:15:43;11.80;99.90
21612;DHT22;47005;52.292;13.452;2023-04-15T13:18:10;11.80;99.90
21612;DHT22;47005;52.292;13.452;2023-04-15T13:20:36;11.80;99.90
21612;DHT22;47005;52.292;13.452;2023-04-15T13:23:01;11.80;99.90
21612;DHT22;47005;52.292;13.452;2023-04-15T13:25:27;11.80;99.90
21612;DHT22;47005;52.292;13.452;2023-04-15T13:27:53;11.90;99.90
21612;DHT22;47005;52.292;13.452;2023-04-15T13:30:19;11.80;99.90
21612;DHT22;47005;52.292;13.452;2023-04-15T13:32:44;11.90;99.90
21612;DHT22;47005;52.292;13.452;2023-04-15T13:35:10;11.90;99.90
21612;DHT22;47005;52.292;13.452;2023-04-15T13:37:36;11.90;99.90
21612;DHT22;47005;52.292;13.452;2023-04-15T13:40:01;12.00;99.90
21612;DHT22;47005;52.292;13.452;2023-04-15T13:42:27;11.90;99.90
21612;DHT22;47005;52.292;13.452;2023-04-15T13:44:53;12.00;99.90
21612;DHT22;47005;52.292;13.452;2023-04-15T13:47:19;12.00;99.90
21612;DHT22;47005;52.292;13.452;2023-04-15T13:49:45;12.00;99.90
21612;DHT22;47005;52.292;13.452;2023-04-15T13:52:11;12.00;99.90
21612;DHT22;47005;52.292;13.452;2023-04-15T13:54:37;12.00;99.90
21612;DHT22;47005;52.292;13.452;2023-04-15T13:57:03;12.00;99.90
21612;DHT22;47005;52.292;13.452;2023-04-15T13:59:35;12.10;99.90
21612;DHT22;47005;52.292;13.452;2023-04-15T14:02:01;12.10;99.90
21612;DHT22;47005;52.292;13.452;2023-04-15T14:04:27;12.10;99.90
21612;DHT22;47005;52.292;13.452;2023-04-15T14:06:52;12.10;99.90
21612;DHT22;47005;52.292;13.452;2023-04-15T14:09:18;12.10;99.90
21612;DHT22;47005;52.292;13.452;2023-04-15T14:11:46;12.10;99.90
21612;DHT22;47005;52.292;13.452;2023-04-15T14:14:14;12.10;99.90
21612;DHT22;47005;52.292;13.452;2023-04-15T14:16:40;12.10;99.90
21612;DHT22;47005;52.292;13.452;2023-04-15T14:19:06;12.10;99.90
21612;DHT22;47005;52.292;13.452;2023-04-15T14:21:32;12.20;99.90
21612;DHT22;47005;52.292;13.452;2023-04-15T14:23:58;12.20;99.90
21612;DHT22;47005;52.292;13.452;2023-04-15T14:26:24;12.20;99.90
21612;DHT22;47005;52.292;13.452;2023-04-15T14:28:50;12.20;99.90
21612;DHT22;47005;52.292;13.452;2023-04-15T14:31:15;12.20;99.90
21612;DHT22;47005;52.292;13.452;2023-04-15T14:33:41;12.20;99.90
21612;DHT22;47005;52.292;13.452;2023-04-15T14:36:08;12.20;99.90
21612;DHT22;47005;52.292;13.452;2023-04-15T14:38:34;12.20;99.90
21612;DHT22;47005;52.292;13.452;2023-04-15T14:41:07;12.20;99.90
21612;DHT22;47005;52.292;13.452;2023-04-15T14:43:34;12.20;99.90
21612;DHT22;47005;52.292;13.452;2023-04-15T14:46:00;12.20;99.90
21612;DHT22;47005;52.292;13.452;2023-04-15T14:48:27;12.30;99.90
21612;DHT22;47005;52.292;13.452;2023-04-15T14:50:52;12.20;99.90
21612;DHT22;47005;52.292;13.452;2023-04-15T14:53:18;12.20;99.90
21612;DHT22;47005;52.292;13.452;2023-04-15T14:55:44;12.20;99.90
21612;DHT22;47005;52.292;13.452;2023-04-15T14:58:10;12.20;99.90
21612;DHT22;47005;52.292;13.452;2023-04-15T15:00:37;12.20;99.90
21612;DHT22;47005;52.292;13.452;2023-04-15T15:03:10;12.20;99.90
21612;DHT22;47005;52.292;13.452;2023-04-15T15:05:43;12.10;99.90
21612;DHT22;47005;52.292;13.452;2023-04-15T15:08:10;12.20;99.90
21612;DHT22;47005;52.292;13.452;2023-04-15T15:10:36;12.10;99.90
21612;DHT22;47005;52.292;13.452;2023-04-15T15:13:03;12.10;99.90
21612;DHT22;47005;52.292;13.452;2023-04-15T15:15:29;12.10;99.90
21612;DHT22;47005;52.292;13.452;2023-04-15T15:17:55;12.10;99.90
21612;DHT22;47005;52.292;13.452;2023-04-15T15:20:24;12.10;99.90
21612;DHT22;47005;52.292;13.452;2023-04-15T15:22:50;12.10;99.90
21612;DHT22;47005;52.292;13.452;2023-04-15T15:25:16;12.10;99.90